Terminal Aerodrome Forecast
Issued by NWS

Home | Current Version | Previous Version | Text Only | Print | Product List | Glossary On
Versions: 1 2 3 4 5 6 7 8 9 10 11 12 13 14 15 16 17
000
FTUS43 KAPX 191700
TAFPLN
TAF
KPLN 191725Z 1918/2018 18010KT P6SM BKN250
     FM192000 18012G22KT P6SM BKN250
     FM200100 17010KT P6SM BKN120 WS008/18030KT
     FM200500 17013KT P6SM -SHRA OVC040 WS008/18030KT
     FM201300 23011G18KT P6SM BKN015=

USA.gov is the U.S. government's official web portal to all federal, state and local government web resources and services.